createdAt,value
2019-01-23T00:00:42.000Z,29.9
2019-01-23T00:10:42.000Z,29.9
2019-01-23T00:20:42.000Z,30.2
2019-01-23T00:30:42.000Z,30.4
2019-01-23T00:40:42.000Z,30.7
2019-01-23T00:50:42.000Z,31
2019-01-23T01:00:42.000Z,31.1
2019-01-23T01:10:42.000Z,32
2019-01-23T01:30:42.000Z,32.2
2019-01-23T01:40:42.000Z,32.4
2019-01-23T01:50:42.000Z,32.4
2019-01-23T02:00:42.000Z,32.4
2019-01-23T02:10:42.000Z,32.9
2019-01-23T02:20:42.000Z,33
2019-01-23T02:30:42.000Z,33.3
2019-01-23T02:40:42.000Z,33.3
2019-01-23T02:50:42.000Z,33.7
2019-01-23T03:00:42.000Z,33
2019-01-23T03:10:42.000Z,33.1
2019-01-23T03:20:42.000Z,33
2019-01-23T03:30:42.000Z,32.9
2019-01-23T03:40:42.000Z,33
2019-01-23T03:50:42.000Z,33.1
2019-01-23T04:00:42.000Z,33.2
2019-01-23T04:10:42.000Z,33.1
2019-01-23T04:20:42.000Z,33.1
2019-01-23T04:30:42.000Z,32.4
2019-01-23T04:40:42.000Z,32.8
2019-01-23T04:50:42.000Z,31.9
2019-01-23T05:00:42.000Z,31.6
2019-01-23T05:10:42.000Z,31.4
2019-01-23T05:20:42.000Z,31.5
2019-01-23T05:30:42.000Z,31.5
2019-01-23T05:40:42.000Z,31.4
2019-01-23T05:50:43.000Z,31.3
2019-01-23T06:00:42.000Z,31.2
2019-01-23T06:10:42.000Z,41.6
2019-01-23T06:20:43.000Z,42.3
2019-01-23T06:30:42.000Z,42.5
2019-01-23T06:40:42.000Z,42.7
2019-01-23T06:50:42.000Z,42.7
2019-01-23T07:00:43.000Z,42.8
2019-01-23T07:10:43.000Z,42.8
2019-01-23T07:20:43.000Z,41.9
2019-01-23T07:30:43.000Z,42.4
2019-01-23T07:40:43.000Z,42.6
2019-01-23T07:50:43.000Z,42.6
2019-01-23T08:00:43.000Z,42.7
2019-01-23T08:10:43.000Z,42.5
2019-01-23T08:20:43.000Z,42.5
2019-01-23T08:30:43.000Z,42.4
2019-01-23T08:40:43.000Z,42.2
2019-01-23T08:50:43.000Z,42.2
2019-01-23T09:00:43.000Z,42.3
2019-01-23T09:10:43.000Z,42.3
2019-01-23T09:20:43.000Z,42.4
2019-01-23T09:30:43.000Z,42.4
2019-01-23T09:40:43.000Z,42.4
2019-01-23T09:50:43.000Z,42.4
2019-01-23T10:00:43.000Z,42.4
2019-01-23T10:10:43.000Z,42.3
2019-01-23T10:20:43.000Z,42.3
2019-01-23T10:30:43.000Z,42.3
2019-01-23T10:40:43.000Z,42.3
2019-01-23T10:50:43.000Z,42.5
2019-01-23T11:00:43.000Z,42.4
2019-01-23T11:10:43.000Z,42.6
2019-01-23T11:20:43.000Z,42.6
2019-01-23T11:30:43.000Z,42.6
2019-01-23T11:40:43.000Z,42.8
2019-01-23T11:50:43.000Z,42.7
2019-01-23T12:10:43.000Z,42.7
2019-01-23T12:20:43.000Z,42.7
2019-01-23T12:30:43.000Z,42.8
2019-01-23T12:40:43.000Z,42.7
2019-01-23T12:50:45.000Z,42.9
2019-01-23T13:00:43.000Z,42.8
2019-01-23T13:10:43.000Z,42.7
2019-01-23T13:20:43.000Z,42.7
2019-01-23T13:30:43.000Z,42.7
2019-01-23T13:40:43.000Z,42.7
2019-01-23T13:50:43.000Z,42.7
2019-01-23T14:00:44.000Z,42.8
2019-01-23T14:10:44.000Z,42.8
2019-01-23T14:20:44.000Z,42.7
2019-01-23T14:30:44.000Z,42.6
2019-01-23T14:40:44.000Z,42.7
2019-01-23T14:50:44.000Z,42.7
2019-01-23T15:00:44.000Z,42.6
2019-01-23T15:10:44.000Z,42.6
2019-01-23T15:20:44.000Z,42.6
2019-01-23T15:30:44.000Z,42.6
2019-01-23T15:40:45.000Z,42.6
2019-01-23T15:50:44.000Z,42.4
2019-01-23T16:00:44.000Z,42.4
2019-01-23T16:10:44.000Z,42.4
2019-01-23T16:20:44.000Z,42.4
2019-01-23T16:30:44.000Z,42.4
2019-01-23T16:40:44.000Z,42.4
2019-01-23T16:50:44.000Z,41.8
2019-01-23T17:00:44.000Z,42
2019-01-23T17:10:44.000Z,42.3
2019-01-23T17:20:44.000Z,42.4
2019-01-23T17:30:44.000Z,40.5
2019-01-23T17:40:44.000Z,42
2019-01-23T17:50:46.000Z,42
2019-01-23T18:00:44.000Z,42.5
2019-01-23T18:10:44.000Z,45.1
2019-01-23T18:20:44.000Z,45.3
2019-01-23T18:30:44.000Z,44.9
2019-01-23T18:40:44.000Z,45.1
2019-01-23T18:50:45.000Z,44.5
2019-01-23T19:00:44.000Z,44.7
2019-01-23T19:10:44.000Z,44.7
2019-01-23T19:20:44.000Z,44.5
2019-01-23T19:30:45.000Z,44.5
2019-01-23T19:40:44.000Z,44.3
2019-01-23T19:50:44.000Z,44.2
2019-01-23T20:00:44.000Z,44.1
2019-01-23T20:10:44.000Z,44.1
2019-01-23T20:20:45.000Z,44
2019-01-23T20:30:45.000Z,44
2019-01-23T20:40:44.000Z,43.9
2019-01-23T20:50:45.000Z,43.9
2019-01-23T21:00:45.000Z,43.8
2019-01-23T21:10:45.000Z,43.8
2019-01-23T21:20:45.000Z,43.8
2019-01-23T21:30:47.000Z,43.4
2019-01-23T21:40:45.000Z,43.3
2019-01-23T21:50:45.000Z,43.2
2019-01-23T22:00:45.000Z,43.2
2019-01-23T22:10:45.000Z,43.2
2019-01-23T22:20:45.000Z,43.1
2019-01-23T22:30:45.000Z,43.1
2019-01-23T22:40:45.000Z,43.4
2019-01-23T22:50:45.000Z,43.6
2019-01-23T23:00:45.000Z,43.9
2019-01-23T23:10:45.000Z,29.5
2019-01-23T23:20:45.000Z,27.5
2019-01-23T23:30:45.000Z,27.4
2019-01-23T23:40:45.000Z,27.1
2019-01-23T23:50:45.000Z,27.9
